sensor_id;sensor_type;location;lat;lon;timestamp;temperature;humidity
20735;DHT22;10528;52.124;5.196;2023-03-23T00:01:13;12.30;99.90
20735;DHT22;10528;52.124;5.196;2023-03-23T00:03:46;12.30;99.90
20735;DHT22;10528;52.124;5.196;2023-03-23T00:06:13;12.40;99.90
20735;DHT22;10528;52.124;5.196;2023-03-23T00:08:45;12.40;99.90
20735;DHT22;10528;52.124;5.196;2023-03-23T00:11:20;12.40;99.90
20735;DHT22;10528;52.124;5.196;2023-03-23T00:13:49;12.40;99.90
20735;DHT22;10528;52.124;5.196;2023-03-23T00:16:20;12.40;99.90
20735;DHT22;10528;52.124;5.196;2023-03-23T00:18:57;12.50;99.90
20735;DHT22;10528;52.124;5.196;2023-03-23T00:21:30;12.50;99.90
20735;DHT22;10528;52.124;5.196;2023-03-23T00:24:16;12.50;99.90
20735;DHT22;10528;52.124;5.196;2023-03-23T00:26:45;12.50;99.90
20735;DHT22;10528;52.124;5.196;2023-03-23T00:29:19;12.50;99.90
20735;DHT22;10528;52.124;5.196;2023-03-23T00:31:50;12.40;99.90
20735;DHT22;10528;52.124;5.196;2023-03-23T00:34:22;12.50;99.90
20735;DHT22;10528;52.124;5.196;2023-03-23T00:36:54;12.50;99.90
20735;DHT22;10528;52.124;5.196;2023-03-23T00:39:23;12.50;99.90
20735;DHT22;10528;52.124;5.196;2023-03-23T00:41:51;12.50;99.90
20735;DHT22;10528;52.124;5.196;2023-03-23T00:44:17;12.50;99.90
20735;DHT22;10528;52.124;5.196;2023-03-23T00:46:44;12.50;99.90
20735;DHT22;10528;52.124;5.196;2023-03-23T00:49:12;12.50;99.90
20735;DHT22;10528;52.124;5.196;2023-03-23T00:51:40;12.60;99.90
20735;DHT22;10528;52.124;5.196;2023-03-23T00:54:07;12.60;99.90
20735;DHT22;10528;52.124;5.196;2023-03-23T00:56:34;12.60;99.90
20735;DHT22;10528;52.124;5.196;2023-03-23T00:59:00;12.60;99.90
20735;DHT22;10528;52.124;5.196;2023-03-23T01:01:27;12.60;99.90
20735;DHT22;10528;52.124;5.196;2023-03-23T01:03:54;12.60;99.90
20735;DHT22;10528;52.124;5.196;2023-03-23T01:06:27;12.60;99.90
20735;DHT22;10528;52.124;5.196;2023-03-23T01:08:54;12.60;99.90
20735;DHT22;10528;52.124;5.196;2023-03-23T01:11:24;12.60;99.90
20735;DHT22;10528;52.124;5.196;2023-03-23T01:13:51;12.60;99.90
20735;DHT22;10528;52.124;5.196;2023-03-23T01:16:20;12.60;99.90
20735;DHT22;10528;52.124;5.196;2023-03-23T01:18:46;12.60;99.90
20735;DHT22;10528;52.124;5.196;2023-03-23T01:21:14;12.60;99.90
20735;DHT22;10528;52.124;5.196;2023-03-23T01:23:41;12.70;99.90
20735;DHT22;10528;52.124;5.196;2023-03-23T01:26:16;12.60;99.90
20735;DHT22;10528;52.124;5.196;2023-03-23T01:28:46;12.60;99.90
20735;DHT22;10528;52.124;5.196;2023-03-23T01:31:16;12.60;99.90
20735;DHT22;10528;52.124;5.196;2023-03-23T01:33:44;12.60;99.90
20735;DHT22;10528;52.124;5.196;2023-03-23T01:36:14;12.60;99.90
20735;DHT22;10528;52.124;5.196;2023-03-23T01:38:43;12.60;99.90
20735;DHT22;10528;52.124;5.196;2023-03-23T01:41:11;12.60;99.90
20735;DHT22;10528;52.124;5.196;2023-03-23T01:46:26;12.60;99.90
20735;DHT22;10528;52.124;5.196;2023-03-23T01:48:52;12.60;99.90
20735;DHT22;10528;52.124;5.196;2023-03-23T01:51:21;12.60;99.90
20735;DHT22;10528;52.124;5.196;2023-03-23T01:53:56;12.60;99.90
20735;DHT22;10528;52.124;5.196;2023-03-23T01:56:28;12.60;99.90
20735;DHT22;10528;52.124;5.196;2023-03-23T01:58:59;12.60;99.90
20735;DHT22;10528;52.124;5.196;2023-03-23T02:01:26;12.70;99.90
20735;DHT22;10528;52.124;5.196;2023-03-23T02:03:55;12.70;99.90
20735;DHT22;10528;52.124;5.196;2023-03-23T02:06:23;12.60;99.90
20735;DHT22;10528;52.124;5.196;2023-03-23T02:09:07;12.60;99.90
20735;DHT22;10528;52.124;5.196;2023-03-23T02:11:34;12.60;99.90
20735;DHT22;10528;52.124;5.196;2023-03-23T02:14:01;12.60;99.90
20735;DHT22;10528;52.124;5.196;2023-03-23T02:16:33;12.70;99.90
20735;DHT22;10528;52.124;5.196;2023-03-23T02:19:22;12.70;99.90
20735;DHT22;10528;52.124;5.196;2023-03-23T02:32:04;12.70;99.90
20735;DHT22;10528;52.124;5.196;2023-03-23T02:34:56;12.70;99.90
20735;DHT22;10528;52.124;5.196;2023-03-23T02:37:39;12.70;99.90
20735;DHT22;10528;52.124;5.196;2023-03-23T02:40:25;12.70;99.90
20735;DHT22;10528;52.124;5.196;2023-03-23T02:42:57;12.70;99.90
20735;DHT22;10528;52.124;5.196;2023-03-23T02:45:27;12.80;99.90
20735;DHT22;10528;52.124;5.196;2023-03-23T02:47:56;12.80;99.90
20735;DHT22;10528;52.124;5.196;2023-03-23T02:50:24;12.90;99.90
20735;DHT22;10528;52.124;5.196;2023-03-23T02:52:54;12.80;99.90
20735;DHT22;10528;52.124;5.196;2023-03-23T02:55:22;12.90;99.90
20735;DHT22;10528;52.124;5.196;2023-03-23T02:57:52;13.00;99.90
20735;DHT22;10528;52.124;5.196;2023-03-23T03:00:20;12.90;99.90
20735;DHT22;10528;52.124;5.196;2023-03-23T03:02:52;12.90;99.90
20735;DHT22;10528;52.124;5.196;2023-03-23T03:08:22;12.90;99.90
20735;DHT22;10528;52.124;5.196;2023-03-23T03:10:57;12.90;99.90
20735;DHT22;10528;52.124;5.196;2023-03-23T03:13:53;12.90;99.90
20735;DHT22;10528;52.124;5.196;2023-03-23T03:16:32;12.90;99.90
20735;DHT22;10528;52.124;5.196;2023-03-23T03:19:30;12.80;99.90
20735;DHT22;10528;52.124;5.196;2023-03-23T03:22:01;12.90;99.90
20735;DHT22;10528;52.124;5.196;2023-03-23T03:24:40;12.90;99.90
20735;DHT22;10528;52.124;5.196;2023-03-23T03:27:13;12.90;99.90
20735;DHT22;10528;52.124;5.196;2023-03-23T03:29:55;12.90;99.90
20735;DHT22;10528;52.124;5.196;2023-03-23T03:32:36;13.00;99.90
20735;DHT22;10528;52.124;5.196;2023-03-23T03:35:06;13.10;99.90
20735;DHT22;10528;52.124;5.196;2023-03-23T03:37:34;13.00;99.90
20735;DHT22;10528;52.124;5.196;2023-03-23T03:40:05;12.90;99.90
20735;DHT22;10528;52.124;5.196;2023-03-23T03:42:41;12.90;99.90
20735;DHT22;10528;52.124;5.196;2023-03-23T03:45:11;13.00;99.90
20735;DHT22;10528;52.124;5.196;2023-03-23T03:47:39;12.90;99.90
20735;DHT22;10528;52.124;5.196;2023-03-23T03:50:05;12.90;99.90
20735;DHT22;10528;52.124;5.196;2023-03-23T03:52:32;12.90;99.90
20735;DHT22;10528;52.124;5.196;2023-03-23T03:54:58;13.00;99.90
20735;DHT22;10528;52.124;5.196;2023-03-23T03:57:26;13.10;99.90
20735;DHT22;10528;52.124;5.196;2023-03-23T04:00:05;13.10;99.90
20735;DHT22;10528;52.124;5.196;2023-03-23T04:02:44;13.10;99.90
20735;DHT22;10528;52.124;5.196;2023-03-23T04:05:39;13.20;99.90
20735;DHT22;10528;52.124;5.196;2023-03-23T04:08:05;13.10;99.90
20735;DHT22;10528;52.124;5.196;2023-03-23T04:10:32;13.00;99.90
20735;DHT22;10528;52.124;5.196;2023-03-23T04:12:59;13.10;99.90
20735;DHT22;10528;52.124;5.196;2023-03-23T04:15:49;13.00;99.90
20735;DHT22;10528;52.124;5.196;2023-03-23T04:18:16;13.00;99.90
20735;DHT22;10528;52.124;5.196;2023-03-23T04:20:46;13.00;99.90
20735;DHT22;10528;52.124;5.196;2023-03-23T04:23:16;13.20;99.90
20735;DHT22;10528;52.124;5.196;2023-03-23T04:25:49;13.10;99.90
20735;DHT22;10528;52.124;5.196;2023-03-23T04:28:16;13.10;99.90
20735;DHT22;10528;52.124;5.196;2023-03-23T04:30:58;13.10;99.90
20735;DHT22;10528;52.124;5.196;2023-03-23T04:33:27;13.10;99.90
20735;DHT22;10528;52.124;5.196;2023-03-23T04:35:59;13.10;99.90
20735;DHT22;10528;52.124;5.196;2023-03-23T04:38:52;13.20;99.90
20735;DHT22;10528;52.124;5.196;2023-03-23T04:41:22;13.00;99.90
20735;DHT22;10528;52.124;5.196;2023-03-23T04:43:59;13.10;99.90
20735;DHT22;10528;52.124;5.196;2023-03-23T04:46:40;13.00;99.90
20735;DHT22;10528;52.124;5.196;2023-03-23T04:49:08;13.10;99.90
20735;DHT22;10528;52.124;5.196;2023-03-23T04:51:37;13.20;99.90
20735;DHT22;10528;52.124;5.196;2023-03-23T04:54:15;13.10;99.90
20735;DHT22;10528;52.124;5.196;2023-03-23T04:56:46;13.20;99.90
20735;DHT22;10528;52.124;5.196;2023-03-23T04:59:14;13.20;99.90
20735;DHT22;10528;52.124;5.196;2023-03-23T05:02:05;13.20;99.90
20735;DHT22;10528;52.124;5.196;2023-03-23T05:04:32;13.20;99.90
20735;DHT22;10528;52.124;5.196;2023-03-23T05:07:08;13.10;99.90
20735;DHT22;10528;52.124;5.196;2023-03-23T05:09:41;13.20;99.90
20735;DHT22;10528;52.124;5.196;2023-03-23T05:12:09;13.20;99.90
20735;DHT22;10528;52.124;5.196;2023-03-23T05:14:44;13.00;99.90
20735;DHT22;10528;52.124;5.196;2023-03-23T05:17:14;13.00;99.90
20735;DHT22;10528;52.124;5.196;2023-03-23T05:19:43;13.00;99.90
20735;DHT22;10528;52.124;5.196;2023-03-23T05:22:29;13.10;99.90
20735;DHT22;10528;52.124;5.196;2023-03-23T05:24:59;12.80;99.90
20735;DHT22;10528;52.124;5.196;2023-03-23T05:27:29;12.70;99.90
20735;DHT22;10528;52.124;5.196;2023-03-23T05:30:00;12.60;99.90
20735;DHT22;10528;52.124;5.196;2023-03-23T05:32:28;12.70;99.90
20735;DHT22;10528;52.124;5.196;2023-03-23T05:34:56;12.90;99.90
20735;DHT22;10528;52.124;5.196;2023-03-23T05:37:24;12.80;99.90
20735;DHT22;10528;52.124;5.196;2023-03-23T05:39:58;12.60;99.90
20735;DHT22;10528;52.124;5.196;2023-03-23T05:42:43;12.50;99.90
20735;DHT22;10528;52.124;5.196;2023-03-23T05:45:19;12.40;99.90
20735;DHT22;10528;52.124;5.196;2023-03-23T05:47:47;12.50;99.90
20735;DHT22;10528;52.124;5.196;2023-03-23T05:50:18;12.40;99.90
20735;DHT22;10528;52.124;5.196;2023-03-23T05:52:44;12.40;99.90
20735;DHT22;10528;52.124;5.196;2023-03-23T05:55:13;12.30;99.90
20735;DHT22;10528;52.124;5.196;2023-03-23T05:57:42;12.40;99.90
20735;DHT22;10528;52.124;5.196;2023-03-23T06:00:30;12.30;99.90
20735;DHT22;10528;52.124;5.196;2023-03-23T06:03:09;12.30;99.90
20735;DHT22;10528;52.124;5.196;2023-03-23T06:05:44;12.40;99.90
20735;DHT22;10528;52.124;5.196;2023-03-23T06:08:14;12.30;99.90
20735;DHT22;10528;52.124;5.196;2023-03-23T06:10:40;12.20;99.90
20735;DHT22;10528;52.124;5.196;2023-03-23T06:13:06;12.30;99.90
20735;DHT22;10528;52.124;5.196;2023-03-23T06:15:37;12.30;99.90
20735;DHT22;10528;52.124;5.196;2023-03-23T06:18:19;12.20;99.90
20735;DHT22;10528;52.124;5.196;2023-03-23T06:21:24;12.30;99.90
20735;DHT22;10528;52.124;5.196;2023-03-23T06:23:56;12.30;99.90
20735;DHT22;10528;52.124;5.196;2023-03-23T06:26:31;12.10;99.90
20735;DHT22;10528;52.124;5.196;2023-03-23T06:29:04;11.90;99.90
20735;DHT22;10528;52.124;5.196;2023-03-23T06:31:42;11.90;99.90
20735;DHT22;10528;52.124;5.196;2023-03-23T06:34:11;11.80;99.90
20735;DHT22;10528;52.124;5.196;2023-03-23T06:37:15;11.80;99.90
20735;DHT22;10528;52.124;5.196;2023-03-23T06:39:59;11.90;99.90
20735;DHT22;10528;52.124;5.196;2023-03-23T06:42:34;11.90;99.90
20735;DHT22;10528;52.124;5.196;2023-03-23T06:45:30;11.90;99.90
20735;DHT22;10528;52.124;5.196;2023-03-23T06:48:17;11.90;99.90
20735;DHT22;10528;52.124;5.196;2023-03-23T06:50:44;11.80;99.90
20735;DHT22;10528;52.124;5.196;2023-03-23T06:53:12;11.90;99.90
20735;DHT22;10528;52.124;5.196;2023-03-23T06:55:39;11.90;99.90
20735;DHT22;10528;52.124;5.196;2023-03-23T06:58:05;11.90;99.90
20735;DHT22;10528;52.124;5.196;2023-03-23T07:00:32;11.90;99.90
20735;DHT22;10528;52.124;5.196;2023-03-23T07:02:59;11.90;99.90
20735;DHT22;10528;52.124;5.196;2023-03-23T07:05:25;11.90;99.90
20735;DHT22;10528;52.124;5.196;2023-03-23T07:07:51;12.00;99.90
20735;DHT22;10528;52.124;5.196;2023-03-23T07:10:29;12.00;99.90
20735;DHT22;10528;52.124;5.196;2023-03-23T07:12:56;12.00;99.90
20735;DHT22;10528;52.124;5.196;2023-03-23T07:15:22;12.00;99.90
20735;DHT22;10528;52.124;5.196;2023-03-23T07:17:51;11.90;99.90
20735;DHT22;10528;52.124;5.196;2023-03-23T07:20:46;11.90;99.90
20735;DHT22;10528;52.124;5.196;2023-03-23T07:23:14;12.00;99.90
20735;DHT22;10528;52.124;5.196;2023-03-23T07:25:45;12.10;99.90
20735;DHT22;10528;52.124;5.196;2023-03-23T07:28:18;12.20;99.90
20735;DHT22;10528;52.124;5.196;2023-03-23T07:30:45;12.30;99.90
20735;DHT22;10528;52.124;5.196;2023-03-23T07:33:11;12.30;99.90
20735;DHT22;10528;52.124;5.196;2023-03-23T07:35:37;12.30;99.90
20735;DHT22;10528;52.124;5.196;2023-03-23T07:38:07;12.50;99.90
20735;DHT22;10528;52.124;5.196;2023-03-23T07:40:35;12.40;99.90
20735;DHT22;10528;52.124;5.196;2023-03-23T07:43:07;12.50;99.90
20735;DHT22;10528;52.124;5.196;2023-03-23T07:45:59;12.60;99.90
20735;DHT22;10528;52.124;5.196;2023-03-23T07:48:34;12.70;99.90
20735;DHT22;10528;52.124;5.196;2023-03-23T07:50:59;12.70;99.90
20735;DHT22;10528;52.124;5.196;2023-03-23T07:53:28;12.60;99.90
20735;DHT22;10528;52.124;5.196;2023-03-23T07:56:06;12.70;99.90
20735;DHT22;10528;52.124;5.196;2023-03-23T07:58:47;12.60;99.90
20735;DHT22;10528;52.124;5.196;2023-03-23T08:01:13;12.70;99.90
20735;DHT22;10528;52.124;5.196;2023-03-23T08:03:42;12.60;99.90
20735;DHT22;10528;52.124;5.196;2023-03-23T08:06:32;12.70;99.90
20735;DHT22;10528;52.124;5.196;2023-03-23T08:09:17;12.90;99.90
20735;DHT22;10528;52.124;5.196;2023-03-23T08:12:18;12.90;99.90
20735;DHT22;10528;52.124;5.196;2023-03-23T08:15:17;12.90;99.90
20735;DHT22;10528;52.124;5.196;2023-03-23T08:18:12;12.90;99.90
20735;DHT22;10528;52.124;5.196;2023-03-23T08:20:44;13.10;99.90
20735;DHT22;10528;52.124;5.196;2023-03-23T08:23:29;13.10;99.90
20735;DHT22;10528;52.124;5.196;2023-03-23T08:26:16;13.10;99.90
20735;DHT22;10528;52.124;5.196;2023-03-23T08:28:54;13.10;99.90
20735;DHT22;10528;52.124;5.196;2023-03-23T08:31:20;13.10;99.90
20735;DHT22;10528;52.124;5.196;2023-03-23T08:33:58;13.10;99.90
20735;DHT22;10528;52.124;5.196;2023-03-23T08:36:36;13.20;99.90
20735;DHT22;10528;52.124;5.196;2023-03-23T08:39:12;13.20;99.90
20735;DHT22;10528;52.124;5.196;2023-03-23T08:41:58;13.10;99.90
20735;DHT22;10528;52.124;5.196;2023-03-23T08:44:47;13.20;99.90
20735;DHT22;10528;52.124;5.196;2023-03-23T08:47:30;13.10;99.90
20735;DHT22;10528;52.124;5.196;2023-03-23T08:50:16;13.30;99.90
20735;DHT22;10528;52.124;5.196;2023-03-23T08:52:43;13.20;99.90
20735;DHT22;10528;52.124;5.196;2023-03-23T08:55:28;13.30;99.90
20735;DHT22;10528;52.124;5.196;2023-03-23T08:58:10;13.20;99.90
20735;DHT22;10528;52.124;5.196;2023-03-23T09:00:54;13.40;99.90
20735;DHT22;10528;52.124;5.196;2023-03-23T09:03:52;13.50;99.90
20735;DHT22;10528;52.124;5.196;2023-03-23T09:06:38;13.60;99.90
20735;DHT22;10528;52.124;5.196;2023-03-23T09:09:04;13.60;99.90
20735;DHT22;10528;52.124;5.196;2023-03-23T09:11:35;13.60;99.90
20735;DHT22;10528;52.124;5.196;2023-03-23T09:14:03;13.40;99.90
20735;DHT22;10528;52.124;5.196;2023-03-23T09:16:31;13.60;99.90
20735;DHT22;10528;52.124;5.196;2023-03-23T09:18:59;13.70;99.90
20735;DHT22;10528;52.124;5.196;2023-03-23T09:21:27;13.70;99.90
20735;DHT22;10528;52.124;5.196;2023-03-23T09:23:54;13.90;99.90
20735;DHT22;10528;52.124;5.196;2023-03-23T09:26:25;13.90;99.90
20735;DHT22;10528;52.124;5.196;2023-03-23T09:28:51;13.90;99.90
20735;DHT22;10528;52.124;5.196;2023-03-23T09:31:18;13.90;99.90
20735;DHT22;10528;52.124;5.196;2023-03-23T09:33:48;14.00;99.90
20735;DHT22;10528;52.124;5.196;2023-03-23T09:36:18;13.90;99.90
20735;DHT22;10528;52.124;5.196;2023-03-23T09:38:47;14.20;99.90
20735;DHT22;10528;52.124;5.196;2023-03-23T09:48:55;14.60;99.90
20735;DHT22;10528;52.124;5.196;2023-03-23T09:51:40;14.40;99.90
20735;DHT22;10528;52.124;5.196;2023-03-23T09:54:23;14.40;99.90
20735;DHT22;10528;52.124;5.196;2023-03-23T09:56:54;14.80;99.90
20735;DHT22;10528;52.124;5.196;2023-03-23T09:59:35;14.60;99.90
20735;DHT22;10528;52.124;5.196;2023-03-23T10:02:15;14.70;99.90
20735;DHT22;10528;52.124;5.196;2023-03-23T10:05:29;15.00;99.90
20735;DHT22;10528;52.124;5.196;2023-03-23T10:08:02;15.20;99.90
20735;DHT22;10528;52.124;5.196;2023-03-23T10:11:07;15.20;99.90
20735;DHT22;10528;52.124;5.196;2023-03-23T10:16:23;15.40;99.90
20735;DHT22;10528;52.124;5.196;2023-03-23T10:21:50;15.50;99.90
20735;DHT22;10528;52.124;5.196;2023-03-23T10:24:21;15.80;99.90
20735;DHT22;10528;52.124;5.196;2023-03-23T10:30:19;15.70;99.90
20735;DHT22;10528;52.124;5.196;2023-03-23T10:32:52;15.90;99.90
20735;DHT22;10528;52.124;5.196;2023-03-23T10:35:23;16.30;99.90
20735;DHT22;10528;52.124;5.196;2023-03-23T10:38:00;16.10;99.90
20735;DHT22;10528;52.124;5.196;2023-03-23T10:40:29;16.10;99.90
20735;DHT22;10528;52.124;5.196;2023-03-23T10:43:01;15.80;99.90
20735;DHT22;10528;52.124;5.196;2023-03-23T10:45:29;15.70;99.90
20735;DHT22;10528;52.124;5.196;2023-03-23T10:50:56;15.70;99.90
20735;DHT22;10528;52.124;5.196;2023-03-23T10:53:34;15.90;99.90
20735;DHT22;10528;52.124;5.196;2023-03-23T10:56:04;15.70;99.90
20735;DHT22;10528;52.124;5.196;2023-03-23T10:58:33;15.70;99.90
20735;DHT22;10528;52.124;5.196;2023-03-23T11:01:03;15.80;99.90
20735;DHT22;10528;52.124;5.196;2023-03-23T11:03:41;15.90;99.90
20735;DHT22;10528;52.124;5.196;2023-03-23T11:06:11;15.90;99.90
20735;DHT22;10528;52.124;5.196;2023-03-23T11:08:54;15.60;99.90
20735;DHT22;10528;52.124;5.196;2023-03-23T11:11:28;15.80;99.90
20735;DHT22;10528;52.124;5.196;2023-03-23T11:16:53;15.60;99.90
20735;DHT22;10528;52.124;5.196;2023-03-23T11:19:25;15.50;99.90
20735;DHT22;10528;52.124;5.196;2023-03-23T11:21:58;15.50;99.90
20735;DHT22;10528;52.124;5.196;2023-03-23T11:24:44;15.90;99.90
20735;DHT22;10528;52.124;5.196;2023-03-23T11:27:14;16.10;99.90
20735;DHT22;10528;52.124;5.196;2023-03-23T11:29:55;16.20;99.90
20735;DHT22;10528;52.124;5.196;2023-03-23T11:32:45;16.40;99.90
20735;DHT22;10528;52.124;5.196;2023-03-23T11:35:19;16.50;99.90
20735;DHT22;10528;52.124;5.196;2023-03-23T11:37:55;16.60;99.90
20735;DHT22;10528;52.124;5.196;2023-03-23T11:40:26;16.70;99.90
20735;DHT22;10528;52.124;5.196;2023-03-23T11:43:12;16.40;99.90
20735;DHT22;10528;52.124;5.196;2023-03-23T11:46:09;16.20;99.90
20735;DHT22;10528;52.124;5.196;2023-03-23T11:48:49;16.10;99.90
20735;DHT22;10528;52.124;5.196;2023-03-23T11:51:31;16.00;99.90
20735;DHT22;10528;52.124;5.196;2023-03-23T11:54:33;15.80;99.90
20735;DHT22;10528;52.124;5.196;2023-03-23T11:57:10;15.50;99.90
20735;DHT22;10528;52.124;5.196;2023-03-23T11:59:38;15.30;99.90
20735;DHT22;10528;52.124;5.196;2023-03-23T12:02:25;15.20;99.90
20735;DHT22;10528;52.124;5.196;2023-03-23T12:13:44;15.10;99.90
20735;DHT22;10528;52.124;5.196;2023-03-23T12:19:21;15.50;99.90
20735;DHT22;10528;52.124;5.196;2023-03-23T12:22:12;15.70;99.90
20735;DHT22;10528;52.124;5.196;2023-03-23T12:27:59;15.90;99.90
20735;DHT22;10528;52.124;5.196;2023-03-23T12:31:11;15.80;99.90
20735;DHT22;10528;52.124;5.196;2023-03-23T12:33:54;15.70;99.90
20735;DHT22;10528;52.124;5.196;2023-03-23T12:45:50;15.90;99.90
20735;DHT22;10528;52.124;5.196;2023-03-23T12:48:49;15.90;99.90
20735;DHT22;10528;52.124;5.196;2023-03-23T12:51:59;16.00;99.90
20735;DHT22;10528;52.124;5.196;2023-03-23T12:55:23;15.80;99.90
20735;DHT22;10528;52.124;5.196;2023-03-23T12:58:26;15.70;99.90
20735;DHT22;10528;52.124;5.196;2023-03-23T13:00:59;15.70;99.90
20735;DHT22;10528;52.124;5.196;2023-03-23T13:03:53;15.90;99.90
20735;DHT22;10528;52.124;5.196;2023-03-23T13:06:35;15.80;99.90
20735;DHT22;10528;52.124;5.196;2023-03-23T13:09:19;15.80;99.90
20735;DHT22;10528;52.124;5.196;2023-03-23T13:11:54;15.80;99.90
20735;DHT22;10528;52.124;5.196;2023-03-23T13:14:34;15.80;99.90
20735;DHT22;10528;52.124;5.196;2023-03-23T13:20:30;15.90;99.90
20735;DHT22;10528;52.124;5.196;2023-03-23T13:23:37;15.80;99.90
20735;DHT22;10528;52.124;5.196;2023-03-23T13:26:20;16.00;99.90
20735;DHT22;10528;52.124;5.196;2023-03-23T13:31:37;16.10;99.90
20735;DHT22;10528;52.124;5.196;2023-03-23T13:34:22;16.00;99.90
20735;DHT22;10528;52.124;5.196;2023-03-23T13:39:35;16.10;99.90
20735;DHT22;10528;52.124;5.196;2023-03-23T13:50:00;16.10;99.90
20735;DHT22;10528;52.124;5.196;2023-03-23T14:10:55;15.80;99.90
20735;DHT22;10528;52.124;5.196;2023-03-23T14:13:44;15.20;99.90
20735;DHT22;10528;52.124;5.196;2023-03-23T14:16:44;14.90;99.90
20735;DHT22;10528;52.124;5.196;2023-03-23T14:21:59;15.00;99.90
20735;DHT22;10528;52.124;5.196;2023-03-23T14:24:32;15.00;99.90
20735;DHT22;10528;52.124;5.196;2023-03-23T14:27:13;15.00;99.90
20735;DHT22;10528;52.124;5.196;2023-03-23T14:29:41;14.90;99.90
20735;DHT22;10528;52.124;5.196;2023-03-23T14:32:19;15.20;99.90
20735;DHT22;10528;52.124;5.196;2023-03-23T14:34:52;15.10;99.90
20735;DHT22;10528;52.124;5.196;2023-03-23T14:37:20;15.10;99.90
20735;DHT22;10528;52.124;5.196;2023-03-23T14:39:49;15.20;99.90
20735;DHT22;10528;52.124;5.196;2023-03-23T14:42:29;15.30;99.90
20735;DHT22;10528;52.124;5.196;2023-03-23T14:44:57;15.40;99.90
20735;DHT22;10528;52.124;5.196;2023-03-23T14:50:00;15.50;99.90
20735;DHT22;10528;52.124;5.196;2023-03-23T14:52:34;15.60;99.90
20735;DHT22;10528;52.124;5.196;2023-03-23T14:55:12;15.60;99.90
20735;DHT22;10528;52.124;5.196;2023-03-23T14:57:47;15.60;99.90
20735;DHT22;10528;52.124;5.196;2023-03-23T15:00:15;15.60;99.90
20735;DHT22;10528;52.124;5.196;2023-03-23T15:02:50;15.70;99.90
20735;DHT22;10528;52.124;5.196;2023-03-23T15:05:43;15.70;99.90
20735;DHT22;10528;52.124;5.196;2023-03-23T15:08:33;15.70;99.90
20735;DHT22;10528;52.124;5.196;2023-03-23T15:11:36;15.60;99.90
20735;DHT22;10528;52.124;5.196;2023-03-23T15:14:20;15.60;99.90
20735;DHT22;10528;52.124;5.196;2023-03-23T15:16:50;15.70;99.90
20735;DHT22;10528;52.124;5.196;2023-03-23T15:19:32;15.80;99.90
20735;DHT22;10528;52.124;5.196;2023-03-23T15:22:17;15.70;99.90
20735;DHT22;10528;52.124;5.196;2023-03-23T15:28:12;15.60;99.90
20735;DHT22;10528;52.124;5.196;2023-03-23T15:30:54;15.60;99.90
20735;DHT22;10528;52.124;5.196;2023-03-23T15:33:23;15.60;99.90
20735;DHT22;10528;52.124;5.196;2023-03-23T15:35:54;15.60;99.90
20735;DHT22;10528;52.124;5.196;2023-03-23T15:38:23;15.70;99.90
20735;DHT22;10528;52.124;5.196;2023-03-23T15:41:01;15.70;99.90
20735;DHT22;10528;52.124;5.196;2023-03-23T15:43:50;15.60;99.90
20735;DHT22;10528;52.124;5.196;2023-03-23T15:46:21;15.60;99.90
20735;DHT22;10528;52.124;5.196;2023-03-23T15:49:12;15.60;99.90
20735;DHT22;10528;52.124;5.196;2023-03-23T15:51:39;15.60;99.90
20735;DHT22;10528;52.124;5.196;2023-03-23T15:54:10;15.60;99.90
20735;DHT22;10528;52.124;5.196;2023-03-23T15:56:40;15.60;99.90
20735;DHT22;10528;52.124;5.196;2023-03-23T15:59:07;15.70;99.90
20735;DHT22;10528;52.124;5.196;2023-03-23T16:01:36;15.70;99.90
20735;DHT22;10528;52.124;5.196;2023-03-23T16:04:08;15.60;99.90
20735;DHT22;10528;52.124;5.196;2023-03-23T16:06:41;15.70;99.90
20735;DHT22;10528;52.124;5.196;2023-03-23T16:09:14;15.60;99.90
20735;DHT22;10528;52.124;5.196;2023-03-23T16:11:42;15.50;99.90
20735;DHT22;10528;52.124;5.196;2023-03-23T16:14:09;15.60;99.90
20735;DHT22;10528;52.124;5.196;2023-03-23T16:16:47;15.50;99.90
20735;DHT22;10528;52.124;5.196;2023-03-23T16:19:17;15.50;99.90
20735;DHT22;10528;52.124;5.196;2023-03-23T16:21:46;15.50;99.90
20735;DHT22;10528;52.124;5.196;2023-03-23T16:24:13;15.40;99.90
20735;DHT22;10528;52.124;5.196;2023-03-23T16:26:40;15.40;99.90
20735;DHT22;10528;52.124;5.196;2023-03-23T16:29:14;15.30;99.90
20735;DHT22;10528;52.124;5.196;2023-03-23T16:31:59;15.40;99.90
20735;DHT22;10528;52.124;5.196;2023-03-23T16:34:27;15.40;99.90
20735;DHT22;10528;52.124;5.196;2023-03-23T16:36:55;15.40;99.90
20735;DHT22;10528;52.124;5.196;2023-03-23T16:39:22;15.40;99.90
20735;DHT22;10528;52.124;5.196;2023-03-23T16:41:49;15.40;99.90
20735;DHT22;10528;52.124;5.196;2023-03-23T16:44:16;15.40;99.90
20735;DHT22;10528;52.124;5.196;2023-03-23T16:46:43;15.30;99.90
20735;DHT22;10528;52.124;5.196;2023-03-23T16:49:10;15.40;99.90
20735;DHT22;10528;52.124;5.196;2023-03-23T16:51:37;15.40;99.90
20735;DHT22;10528;52.124;5.196;2023-03-23T16:54:03;15.40;99.90
20735;DHT22;10528;52.124;5.196;2023-03-23T16:56:30;15.30;99.90
20735;DHT22;10528;52.124;5.196;2023-03-23T16:58:58;15.30;99.90
20735;DHT22;10528;52.124;5.196;2023-03-23T17:01:24;15.30;99.90
20735;DHT22;10528;52.124;5.196;2023-03-23T17:03:52;15.30;99.90
20735;DHT22;10528;52.124;5.196;2023-03-23T17:06:19;15.30;99.90
20735;DHT22;10528;52.124;5.196;2023-03-23T17:08:46;15.30;99.90
20735;DHT22;10528;52.124;5.196;2023-03-23T17:11:13;15.20;99.90
20735;DHT22;10528;52.124;5.196;2023-03-23T17:13:40;15.20;99.90
20735;DHT22;10528;52.124;5.196;2023-03-23T17:16:07;15.20;99.90
20735;DHT22;10528;52.124;5.196;2023-03-23T17:18:34;15.10;99.90
20735;DHT22;10528;52.124;5.196;2023-03-23T17:21:02;15.10;99.90
20735;DHT22;10528;52.124;5.196;2023-03-23T17:23:29;15.10;99.90
20735;DHT22;10528;52.124;5.196;2023-03-23T17:25:56;15.10;99.90
20735;DHT22;10528;52.124;5.196;2023-03-23T17:28:23;15.10;99.90
20735;DHT22;10528;52.124;5.196;2023-03-23T17:30:51;15.10;99.90
20735;DHT22;10528;52.124;5.196;2023-03-23T17:33:18;15.00;99.90
20735;DHT22;10528;52.124;5.196;2023-03-23T17:35:46;15.10;99.90
20735;DHT22;10528;52.124;5.196;2023-03-23T17:38:17;15.00;99.90
20735;DHT22;10528;52.124;5.196;2023-03-23T17:40:44;15.10;99.90
20735;DHT22;10528;52.124;5.196;2023-03-23T17:43:11;15.00;99.90
20735;DHT22;10528;52.124;5.196;2023-03-23T17:45:38;14.90;99.90
20735;DHT22;10528;52.124;5.196;2023-03-23T17:48:06;14.90;99.90
20735;DHT22;10528;52.124;5.196;2023-03-23T17:50:34;15.00;99.90
20735;DHT22;10528;52.124;5.196;2023-03-23T17:53:02;14.90;99.90
20735;DHT22;10528;52.124;5.196;2023-03-23T17:55:30;14.90;99.90
20735;DHT22;10528;52.124;5.196;2023-03-23T17:57:57;14.90;99.90
20735;DHT22;10528;52.124;5.196;2023-03-23T18:00:24;14.80;99.90
20735;DHT22;10528;52.124;5.196;2023-03-23T18:02:51;14.80;99.90